Weather at Altisurface de Coste Del Palm

Public forecast

Using degrees Celsius for public forecast. Weather courtesy of forecast.io.

Closest aviation weather report (METAR) to Altisurface de Coste Del Palm

Closest report is Pirineus - la Seu d'Urgel Airport, 31.2 nm (57.8 km) WSW. Retrieved 2020/09/19 16:00 UTC (2 minutes ago):

LESU 191600Z VRB06KT 9999 SCT054 BKN082 22/12 Q1014

Closest aviation forecast (TAF) to Altisurface de Coste Del Palm

Closest forecast is Pirineus - la Seu d'Urgel Airport, 31.2 nm (57.8 km) WSW. Retrieved 2020/09/19 15:00 UTC (1 hour ago):

TAF LESU 191400Z 1915/2015 VRB03KT 9999 FEW010 BKN020 TX25/2014Z TN08/2005Z PROB40 TEMPO 1915/1916 VRB05G15KT 3000 TSRA FEW025CB BKN040